Time;durP1;ratioP1;P1;durP2;ratioP2;P2;SDS_P1;SDS_P2;PMS_P1;PMS_P2;Temp;Humidity;BMP_temperature;BMP_pressure;BME280_temperature;BME280_humidity;BME280_pressure;Samples;Min_cycle;Max_cycle;Signal;HPM_P1;HPM_P2
2023/01/19 07:31:03;;;;;;;9.90;2.70;;;;;;;;;;6185667;22;20034;-85
2023/01/19 07:33:29;;;;;;;14.75;3.20;;;;;;;;;;6220900;22;20040;-85
2023/01/19 07:36:14;;;;;;;14.43;3.42;;;;;;;;;;6243194;22;20226;-85
2023/01/19 07:38:42;;;;;;;10.27;3.60;;;;;;;;;;6263923;22;20095;-85
2023/01/19 07:41:09;;;;;;;13.77;3.83;;;;;;;;;;6275562;22;20024;-85
2023/01/19 07:43:38;;;;;;;26.45;4.07;;;;;;;;;;6274389;22;20024;-86
2023/01/19 07:46:05;;;;;;;17.60;3.53;;;;;;;;;;6275800;22;20024;-85
2023/01/19 07:48:32;;;;;;;13.77;3.28;;;;;;;;;;6249200;22;20079;-86
2023/01/19 07:50:59;;;;;;;18.40;3.20;;;;;;;;;;6275616;22;20355;-83
2023/01/19 07:53:26;;;;;;;16.08;3.72;;;;;;;;;;6247131;22;20401;-85
2023/01/19 07:55:53;;;;;;;11.95;2.60;;;;;;;;;;6276393;22;20024;-85
2023/01/19 07:58:21;;;;;;;14.02;3.35;;;;;;;;;;6275878;22;20032;-85
2023/01/19 08:00:49;;;;;;;13.60;2.88;;;;;;;;;;6276429;22;20024;-85
2023/01/19 08:03:16;;;;;;;16.55;3.00;;;;;;;;;;6275692;22;20107;-85
2023/01/19 08:05:43;;;;;;;27.55;6.50;;;;;;;;;;6275578;22;20091;-85
2023/01/19 08:08:11;;;;;;;15.80;3.72;;;;;;;;;;6277616;22;20287;-85
2023/01/19 08:10:38;;;;;;;12.82;3.05;;;;;;;;;;6276238;22;20107;-85
2023/01/19 08:13:04;;;;;;;15.00;2.85;;;;;;;;;;6277347;22;20107;-85
2023/01/19 08:15:31;;;;;;;13.40;3.20;;;;;;;;;;6278915;22;20119;-85
2023/01/19 08:18:04;;;;;;;10.82;2.88;;;;;;;;;;6277337;22;20024;-85
2023/01/19 08:20:31;;;;;;;11.50;2.55;;;;;;;;;;6279013;22;20020;-86
2023/01/19 08:23:01;;;;;;;18.65;3.17;;;;;;;;;;6277678;22;20028;-85
2023/01/19 08:25:36;;;;;;;15.38;3.15;;;;;;;;;;6277743;22;20188;-85
2023/01/19 08:28:03;;;;;;;15.43;3.03;;;;;;;;;;6276565;22;20031;-85
2023/01/19 08:30:30;;;;;;;15.45;4.38;;;;;;;;;;6277555;22;20035;-85
2023/01/19 08:33:02;;;;;;;18.63;3.17;;;;;;;;;;6276324;22;20020;-85
2023/01/19 08:35:30;;;;;;;12.55;2.80;;;;;;;;;;6276153;22;20034;-85
2023/01/19 08:37:59;;;;;;;16.02;4.15;;;;;;;;;;6277346;22;20024;-85
2023/01/19 08:40:32;;;;;;;15.00;3.22;;;;;;;;;;6276845;22;20022;-86
2023/01/19 08:43:02;;;;;;;10.05;3.30;;;;;;;;;;6274561;22;20103;-86
2023/01/19 08:45:29;;;;;;;15.85;2.85;;;;;;;;;;6305955;22;20094;-87
2023/01/19 08:47:58;;;;;;;8.32;2.28;;;;;;;;;;6303860;22;20851;-86
2023/01/19 08:50:25;;;;;;;10.10;2.72;;;;;;;;;;6306096;22;20028;-86
2023/01/19 08:52:51;;;;;;;11.57;2.60;;;;;;;;;;6306837;22;20023;-86
2023/01/19 08:55:18;;;;;;;14.50;2.55;;;;;;;;;;6307263;22;20095;-86
2023/01/19 08:57:49;;;;;;;15.50;3.33;;;;;;;;;;6307486;22;20024;-86
2023/01/19 09:00:16;;;;;;;18.90;2.63;;;;;;;;;;6307807;22;20432;-86
2023/01/19 09:02:43;;;;;;;12.43;2.40;;;;;;;;;;6308517;22;20031;-86
2023/01/19 09:05:10;;;;;;;14.88;2.78;;;;;;;;;;6307690;22;20352;-86
2023/01/19 09:07:37;;;;;;;12.98;2.72;;;;;;;;;;6304398;22;20026;-86
2023/01/19 09:10:04;;;;;;;14.40;2.65;;;;;;;;;;6307678;22;20751;-85
2023/01/19 09:12:31;;;;;;;11.38;2.83;;;;;;;;;;6305984;22;20024;-86
2023/01/19 09:14:57;;;;;;;11.05;2.20;;;;;;;;;;6303042;22;20895;-85
2023/01/19 09:17:24;;;;;;;8.90;2.40;;;;;;;;;;6304354;22;20587;-85
2023/01/19 09:19:50;;;;;;;18.55;2.40;;;;;;;;;;6306202;22;20059;-85
2023/01/19 09:22:21;;;;;;;13.30;1.95;;;;;;;;;;6306935;22;20024;-85
2023/01/19 09:25:00;;;;;;;11.32;2.20;;;;;;;;;;6305385;22;20062;-85
2023/01/19 09:27:27;;;;;;;13.23;2.28;;;;;;;;;;6305542;22;20019;-85
2023/01/19 09:29:54;;;;;;;16.00;1.50;;;;;;;;;;6302210;22;20051;-85
2023/01/19 09:32:30;;;;;;;;;;;;;;;;;;;;;
2023/01/19 09:35:21;;;;;;;12.40;1.90;;;;;;;;;;6305465;22;20011;-84
2023/01/19 09:37:47;;;;;;;11.05;1.67;;;;;;;;;;6304615;22;20039;-84
2023/01/19 09:40:16;;;;;;;11.63;1.90;;;;;;;;;;6304590;22;20019;-85
2023/01/19 09:42:44;;;;;;;12.50;2.15;;;;;;;;;;6305861;22;20480;-84
2023/01/19 09:45:17;;;;;;;8.75;1.77;;;;;;;;;;6305098;22;20059;-85
2023/01/19 09:47:44;;;;;;;12.52;1.63;;;;;;;;;;6303226;22;20103;-85
2023/01/19 09:50:25;;;;;;;16.35;1.80;;;;;;;;;;6305118;22;20039;-85
2023/01/19 09:52:55;;;;;;;15.60;2.03;;;;;;;;;;6304768;22;20456;-85
2023/01/19 09:55:24;;;;;;;14.63;2.00;;;;;;;;;;6306284;22;20024;-86
2023/01/19 09:57:51;;;;;;;11.40;1.40;;;;;;;;;;6304966;22;20027;-86
2023/01/19 10:00:17;;;;;;;9.00;1.42;;;;;;;;;;6302927;22;20019;-86
2023/01/19 10:02:47;;;;;;;7.03;1.90;;;;;;;;;;6302569;22;20412;-86
2023/01/19 10:05:32;;;;;;;7.13;1.33;;;;;;;;;;6303051;22;20811;-86
2023/01/19 10:08:24;;;;;;;12.95;2.00;;;;;;;;;;6305120;22;20020;-85
2023/01/19 10:10:54;;;;;;;8.10;1.63;;;;;;;;;;6305213;22;20270;-86
2023/01/19 10:13:28;;;;;;;6.65;1.35;;;;;;;;;;6306159;22;20026;-85
2023/01/19 10:16:00;;;;;;;11.77;1.92;;;;;;;;;;6305609;22;20354;-85
2023/01/19 10:18:44;;;;;;;14.52;1.80;;;;;;;;;;6304320;22;20495;-86
2023/01/19 10:21:15;;;;;;;7.07;1.33;;;;;;;;;;6304878;22;20188;-86
2023/01/19 10:24:00;;;;;;;11.95;1.70;;;;;;;;;;6303441;22;20019;-86
2023/01/19 10:26:39;;;;;;;11.07;2.17;;;;;;;;;;6306404;22;20038;-82
2023/01/19 10:29:06;;;;;;;13.98;1.75;;;;;;;;;;6306358;22;20059;-86
2023/01/19 10:31:34;;;;;;;7.72;1.52;;;;;;;;;;6300463;22;20108;-86
2023/01/19 10:34:01;;;;;;;13.88;1.90;;;;;;;;;;6305745;22;20028;-86
2023/01/19 10:36:35;;;;;;;10.38;1.52;;;;;;;;;;6307286;22;20016;-86
2023/01/19 10:39:04;;;;;;;10.77;2.13;;;;;;;;;;6305368;22;20027;-85
2023/01/19 10:41:42;;;;;;;11.83;1.30;;;;;;;;;;6304087;22;20026;-86
2023/01/19 10:44:09;;;;;;;11.82;1.50;;;;;;;;;;6303030;22;20251;-87
2023/01/19 10:46:41;;;;;;;9.55;1.38;;;;;;;;;;6305676;22;20099;-86
2023/01/19 10:49:37;;;;;;;8.68;1.48;;;;;;;;;;6304422;22;20406;-86
2023/01/19 10:52:08;;;;;;;8.25;1.42;;;;;;;;;;6284329;22;20521;-85
2023/01/19 10:54:35;;;;;;;4.97;1.00;;;;;;;;;;6306167;22;20031;-87
2023/01/19 10:57:03;;;;;;;6.60;1.20;;;;;;;;;;6307052;22;20024;-86
2023/01/19 10:59:42;;;;;;;7.90;2.08;;;;;;;;;;6304181;22;20393;-86
2023/01/19 11:02:17;;;;;;;9.60;1.30;;;;;;;;;;6305034;22;20024;-86
2023/01/19 11:04:45;;;;;;;4.07;1.27;;;;;;;;;;6303016;22;20472;-86
2023/01/19 11:07:21;;;;;;;7.53;1.10;;;;;;;;;;6303911;22;20028;-86
2023/01/19 11:09:47;;;;;;;8.07;1.30;;;;;;;;;;6303567;22;20086;-86
2023/01/19 11:12:15;;;;;;;10.90;1.17;;;;;;;;;;6304917;22;20023;-83
2023/01/19 11:14:42;;;;;;;7.20;1.10;;;;;;;;;;6304414;22;20062;-83
2023/01/19 11:17:16;;;;;;;5.32;1.13;;;;;;;;;;6305679;22;20028;-84
2023/01/19 11:19:51;;;;;;;6.28;1.15;;;;;;;;;;6306668;22;20028;-83
2023/01/19 11:22:21;;;;;;;12.15;1.50;;;;;;;;;;6306810;22;20028;-83
2023/01/19 11:24:48;;;;;;;8.32;2.00;;;;;;;;;;6306688;22;20510;-84
2023/01/19 11:27:16;;;;;;;17.77;2.35;;;;;;;;;;6305179;22;20071;-83
2023/01/19 11:30:11;;;;;;;10.35;1.52;;;;;;;;;;6278474;22;20024;-83
2023/01/19 11:32:38;;;;;;;6.18;1.15;;;;;;;;;;6283974;22;20027;-83
2023/01/19 11:35:27;;;;;;;10.80;1.50;;;;;;;;;;6301710;22;20913;-83
2023/01/19 11:38:06;;;;;;;14.65;1.10;;;;;;;;;;6292387;22;20043;-84
2023/01/19 11:40:33;;;;;;;7.10;1.13;;;;;;;;;;6305676;22;20107;-84
2023/01/19 11:43:00;;;;;;;9.40;1.58;;;;;;;;;;6306270;22;20030;-84
2023/01/19 11:45:27;;;;;;;10.52;1.33;;;;;;;;;;6305849;22;20031;-83
2023/01/19 11:47:55;;;;;;;5.72;0.98;;;;;;;;;;6305224;22;20078;-84
2023/01/19 11:50:31;;;;;;;7.20;1.20;;;;;;;;;;6304437;22;20052;-84
2023/01/19 11:53:03;;;;;;;9.93;1.02;;;;;;;;;;6305144;22;20026;-84
2023/01/19 11:55:29;;;;;;;6.97;1.20;;;;;;;;;;6304489;22;20024;-84
2023/01/19 11:57:56;;;;;;;6.15;0.88;;;;;;;;;;6303670;22;20016;-84
2023/01/19 12:00:51;;;;;;;4.15;1.00;;;;;;;;;;6305269;22;20019;-84
2023/01/19 12:03:23;;;;;;;5.03;1.08;;;;;;;;;;6264575;22;20121;-84
2023/01/19 12:05:55;;;;;;;7.78;1.20;;;;;;;;;;6304230;22;20031;-86
2023/01/19 12:08:24;;;;;;;12.48;1.17;;;;;;;;;;6300957;22;20459;-86
2023/01/19 12:10:51;;;;;;;2.72;0.80;;;;;;;;;;6305113;22;20059;-86
2023/01/19 12:13:22;;;;;;;12.35;1.75;;;;;;;;;;6304263;22;20099;-86
2023/01/19 12:16:09;;;;;;;8.05;1.10;;;;;;;;;;6304032;22;20465;-86
2023/01/19 12:18:40;;;;;;;4.32;1.00;;;;;;;;;;6288393;22;20146;-86
2023/01/19 12:21:07;;;;;;;7.00;0.80;;;;;;;;;;6304115;22;20012;-84
2023/01/19 12:23:52;;;;;;;5.97;0.80;;;;;;;;;;6304494;22;20778;-84
2023/01/19 12:26:26;;;;;;;7.25;1.10;;;;;;;;;;6306429;22;20026;-84
2023/01/19 12:28:56;;;;;;;7.15;1.25;;;;;;;;;;6303791;22;20012;-84
2023/01/19 12:31:22;;;;;;;7.38;0.80;;;;;;;;;;6303139;22;20476;-84
2023/01/19 12:33:50;;;;;;;2.13;0.43;;;;;;;;;;6305156;22;20027;-84
2023/01/19 12:36:25;;;;;;;7.20;1.20;;;;;;;;;;6304903;22;20031;-84
2023/01/19 12:38:53;;;;;;;7.57;1.00;;;;;;;;;;6304598;22;20102;-85
2023/01/19 12:41:23;;;;;;;3.47;1.00;;;;;;;;;;6305332;22;20109;-85
2023/01/19 12:44:17;;;;;;;5.45;1.00;;;;;;;;;;6304803;22;20065;-85
2023/01/19 12:47:05;;;;;;;3.58;0.77;;;;;;;;;;6294458;22;20028;-84
2023/01/19 12:49:37;;;;;;;4.40;0.80;;;;;;;;;;6302815;22;20019;-85
2023/01/19 12:52:13;;;;;;;4.60;0.90;;;;;;;;;;6305140;22;20024;-85
2023/01/19 12:54:42;;;;;;;5.80;0.80;;;;;;;;;;6302621;22;20034;-85
2023/01/19 12:57:34;;;;;;;6.97;1.35;;;;;;;;;;6303727;22;20838;-85
2023/01/19 13:00:04;;;;;;;7.05;1.30;;;;;;;;;;6305169;22;20024;-85
2023/01/19 13:02:46;;;;;;;2.80;0.75;;;;;;;;;;6304878;22;20510;-85
2023/01/19 13:05:23;;;;;;;4.93;0.90;;;;;;;;;;6305357;22;20030;-85
2023/01/19 13:08:02;;;;;;;5.50;1.00;;;;;;;;;;6305018;22;20031;-85
2023/01/19 13:10:47;;;;;;;7.68;1.60;;;;;;;;;;6305839;22;20020;-85
2023/01/19 13:13:17;;;;;;;8.65;0.90;;;;;;;;;;6305550;22;20019;-85
2023/01/19 13:15:46;;;;;;;5.30;0.93;;;;;;;;;;6306145;22;20011;-86
2023/01/19 13:18:18;;;;;;;5.97;1.65;;;;;;;;;;6305991;22;20035;-85
2023/01/19 13:20:49;;;;;;;3.50;0.75;;;;;;;;;;6303772;22;20020;-85
2023/01/19 13:23:17;;;;;;;6.70;1.00;;;;;;;;;;6305266;22;20522;-86
2023/01/19 13:25:47;;;;;;;4.22;0.70;;;;;;;;;;6305510;22;20095;-85
2023/01/19 13:28:17;;;;;;;4.35;1.05;;;;;;;;;;6305206;22;20023;-84
2023/01/19 13:30:55;;;;;;;7.00;0.88;;;;;;;;;;6302864;22;20042;-84
2023/01/19 13:33:23;;;;;;;4.85;0.77;;;;;;;;;;6303533;22;20034;-84
2023/01/19 13:35:57;;;;;;;5.88;0.95;;;;;;;;;;6304267;22;20800;-84
2023/01/19 13:38:25;;;;;;;4.10;0.70;;;;;;;;;;6302019;22;20935;-84
2023/01/19 13:40:53;;;;;;;3.75;0.90;;;;;;;;;;6303941;22;20495;-84
2023/01/19 13:43:23;;;;;;;4.45;1.00;;;;;;;;;;6303092;22;20088;-85
2023/01/19 13:45:50;;;;;;;4.10;0.80;;;;;;;;;;6302989;22;20050;-85
2023/01/19 13:48:21;;;;;;;4.40;0.70;;;;;;;;;;6303401;22;20082;-85
2023/01/19 13:51:01;;;;;;;3.78;0.70;;;;;;;;;;6303263;22;20024;-85
2023/01/19 13:53:29;;;;;;;6.25;0.95;;;;;;;;;;6303340;22;20028;-84
2023/01/19 13:56:13;;;;;;;6.20;0.80;;;;;;;;;;6303173;22;20074;-85
2023/01/19 13:58:39;;;;;;;3.78;1.35;;;;;;;;;;6302662;22;20028;-84
2023/01/19 14:01:18;;;;;;;5.32;0.80;;;;;;;;;;6303055;22;20020;-85
2023/01/19 14:03:50;;;;;;;4.75;1.00;;;;;;;;;;6303458;22;20520;-82
2023/01/19 14:06:31;;;;;;;8.45;1.10;;;;;;;;;;6303709;22;20028;-85
2023/01/19 14:09:05;;;;;;;5.40;0.90;;;;;;;;;;6303492;22;20066;-85
2023/01/19 14:11:31;;;;;;;5.18;1.08;;;;;;;;;;6301965;22;20023;-84
2023/01/19 14:13:58;;;;;;;6.43;1.20;;;;;;;;;;6302930;22;20028;-85
2023/01/19 14:16:27;;;;;;;6.13;1.10;;;;;;;;;;6301014;22;20102;-85
2023/01/19 14:19:01;;;;;;;4.20;0.80;;;;;;;;;;6303501;22;20023;-84
2023/01/19 14:21:36;;;;;;;3.75;1.00;;;;;;;;;;6302275;22;20070;-85
2023/01/19 14:24:06;;;;;;;5.15;0.80;;;;;;;;;;6303392;22;20058;-86
2023/01/19 14:26:44;;;;;;;5.18;0.88;;;;;;;;;;6303391;22;20111;-85
2023/01/19 14:29:11;;;;;;;8.90;1.33;;;;;;;;;;6302450;22;20063;-85
2023/01/19 14:31:42;;;;;;;3.63;1.10;;;;;;;;;;6302944;22;20470;-85
2023/01/19 14:34:27;;;;;;;6.82;1.25;;;;;;;;;;6302672;22;20431;-85
2023/01/19 14:36:54;;;;;;;3.95;1.00;;;;;;;;;;6302910;22;20093;-85
2023/01/19 14:39:23;;;;;;;3.28;1.00;;;;;;;;;;6302778;22;20086;-85
2023/01/19 14:41:51;;;;;;;4.78;1.02;;;;;;;;;;6302488;22;20483;-86
2023/01/19 14:44:23;;;;;;;3.60;1.30;;;;;;;;;;6303160;22;20047;-85
2023/01/19 14:46:50;;;;;;;12.80;1.50;;;;;;;;;;6303982;22;20862;-86
2023/01/19 14:49:36;;;;;;;4.88;1.02;;;;;;;;;;6303756;22;20034;-86
2023/01/19 14:52:15;;;;;;;4.80;0.95;;;;;;;;;;6301838;22;20078;-86
2023/01/19 14:54:45;;;;;;;2.72;0.90;;;;;;;;;;6303513;22;20553;-86
2023/01/19 14:57:12;;;;;;;6.10;0.90;;;;;;;;;;6303627;22;20489;-86
2023/01/19 14:59:40;;;;;;;6.53;1.00;;;;;;;;;;6301769;22;20081;-86
2023/01/19 15:02:07;;;;;;;5.20;1.27;;;;;;;;;;6302721;22;20075;-86
2023/01/19 15:04:33;;;;;;;5.47;1.25;;;;;;;;;;6302881;22;20024;-85
2023/01/19 15:07:00;;;;;;;8.02;1.40;;;;;;;;;;6301884;22;20032;-86
2023/01/19 15:09:26;;;;;;;4.80;1.20;;;;;;;;;;6302557;22;20063;-87
2023/01/19 15:11:53;;;;;;;5.00;1.08;;;;;;;;;;6305006;22;20019;-86
2023/01/19 15:14:19;;;;;;;6.65;1.42;;;;;;;;;;6304966;22;20935;-86
2023/01/19 15:16:46;;;;;;;5.03;1.35;;;;;;;;;;6303781;22;20461;-86
2023/01/19 15:19:14;;;;;;;10.90;1.90;;;;;;;;;;6276478;22;20027;-86
2023/01/19 15:21:41;;;;;;;5.00;1.88;;;;;;;;;;6304761;22;20034;-86
2023/01/19 15:24:08;;;;;;;7.47;1.88;;;;;;;;;;6302261;22;20016;-86
2023/01/19 15:26:36;;;;;;;5.57;1.20;;;;;;;;;;6302467;22;20027;-86
2023/01/19 15:29:08;;;;;;;5.07;1.38;;;;;;;;;;6301365;22;20125;-86
2023/01/19 15:31:34;;;;;;;5.18;1.23;;;;;;;;;;6303329;22;20032;-86
2023/01/19 15:34:01;;;;;;;3.88;1.00;;;;;;;;;;6303726;22;20031;-86
2023/01/19 15:36:27;;;;;;;5.15;1.30;;;;;;;;;;6302914;22;20074;-86
2023/01/19 15:38:56;;;;;;;3.90;1.20;;;;;;;;;;6304211;22;20031;-86
2023/01/19 15:41:24;;;;;;;9.40;2.05;;;;;;;;;;6304001;22;20564;-86
2023/01/19 15:43:51;;;;;;;6.07;1.70;;;;;;;;;;6303102;22;20073;-86
2023/01/19 15:46:19;;;;;;;4.30;1.73;;;;;;;;;;6275413;22;20461;-86
2023/01/19 15:48:46;;;;;;;6.72;2.15;;;;;;;;;;6303573;22;20443;-86
2023/01/19 15:51:21;;;;;;;6.72;2.15;;;;;;;;;;6301906;22;20116;-86
2023/01/19 15:53:48;;;;;;;4.60;2.05;;;;;;;;;;6303113;22;20024;-86
2023/01/19 15:56:15;;;;;;;6.05;2.78;;;;;;;;;;6301355;22;20479;-86
2023/01/19 15:58:42;;;;;;;6.20;2.83;;;;;;;;;;6302473;22;20115;-86
2023/01/19 16:01:11;;;;;;;6.30;3.28;;;;;;;;;;6303321;22;20032;-86
2023/01/19 16:03:37;;;;;;;7.05;2.70;;;;;;;;;;6302589;22;20023;-86
2023/01/19 16:06:03;;;;;;;7.38;2.20;;;;;;;;;;6301463;22;20498;-86
2023/01/19 16:08:30;;;;;;;4.70;1.80;;;;;;;;;;6301950;22;20103;-86
2023/01/19 16:10:56;;;;;;;4.28;1.40;;;;;;;;;;6302569;22;20051;-86
2023/01/19 16:13:23;;;;;;;6.82;1.40;;;;;;;;;;6301479;22;20062;-87
2023/01/19 16:15:50;;;;;;;3.72;1.38;;;;;;;;;;6300763;22;20019;-86
2023/01/19 16:18:16;;;;;;;4.63;1.33;;;;;;;;;;6301345;22;20020;-86
2023/01/19 16:20:43;;;;;;;4.85;1.10;;;;;;;;;;6301839;22;20085;-87
2023/01/19 16:23:09;;;;;;;9.00;1.60;;;;;;;;;;6302730;22;20452;-87
2023/01/19 16:25:40;;;;;;;;;;;;;;;;;;6303066;22;20826;-87
2023/01/19 16:28:07;;;;;;;5.97;1.08;;;;;;;;;;6300567;22;44977;-87
2023/01/19 16:30:33;;;;;;;4.78;1.38;;;;;;;;;;6302379;22;20030;-88
2023/01/19 16:33:00;;;;;;;3.60;1.33;;;;;;;;;;6303390;22;20806;-88
2023/01/19 16:35:26;;;;;;;5.63;1.33;;;;;;;;;;6303374;22;20023;-88
2023/01/19 16:37:52;;;;;;;5.88;1.58;;;;;;;;;;6303841;22;20416;-88
2023/01/19 16:40:19;;;;;;;6.05;1.23;;;;;;;;;;6304231;22;20042;-88
2023/01/19 16:42:46;;;;;;;4.47;1.02;;;;;;;;;;6304839;22;20049;-86
2023/01/19 16:45:12;;;;;;;5.38;1.20;;;;;;;;;;6276504;22;20028;-86
2023/01/19 16:47:38;;;;;;;5.93;1.08;;;;;;;;;;6306354;22;20114;-87
2023/01/19 16:50:05;;;;;;;3.83;0.98;;;;;;;;;;6304077;22;20399;-87
2023/01/19 16:52:31;;;;;;;7.07;1.35;;;;;;;;;;6306584;22;20035;-87
2023/01/19 16:54:58;;;;;;;5.47;1.50;;;;;;;;;;6304120;22;20090;-86
2023/01/19 16:57:24;;;;;;;5.30;1.33;;;;;;;;;;6305223;22;20024;-86
2023/01/19 16:59:50;;;;;;;9.10;2.13;;;;;;;;;;6304164;22;20377;-86
2023/01/19 17:02:17;;;;;;;9.68;2.78;;;;;;;;;;6303851;22;20020;-86
2023/01/19 17:04:43;;;;;;;8.25;2.80;;;;;;;;;;6305690;22;20034;-86
2023/01/19 17:07:10;;;;;;;8.25;2.17;;;;;;;;;;6304838;22;20032;-86
2023/01/19 17:09:36;;;;;;;13.48;3.40;;;;;;;;;;6306868;22;20024;-86
2023/01/19 17:12:03;;;;;;;9.80;2.63;;;;;;;;;;6305844;22;20070;-86
2023/01/19 17:14:29;;;;;;;8.82;2.42;;;;;;;;;;6307036;22;20469;-86
2023/01/19 17:16:55;;;;;;;4.28;1.80;;;;;;;;;;6303856;22;20455;-86
2023/01/19 17:19:22;;;;;;;6.13;2.70;;;;;;;;;;6306194;22;20028;-86
2023/01/19 17:21:48;;;;;;;7.30;2.40;;;;;;;;;;6303047;22;20682;-86
2023/01/19 17:24:15;;;;;;;5.43;2.28;;;;;;;;;;6301679;22;20024;-86
2023/01/19 17:26:44;;;;;;;6.10;1.98;;;;;;;;;;6302502;22;20038;-86
2023/01/19 17:29:11;;;;;;;9.02;2.20;;;;;;;;;;6302388;22;21962;-86
2023/01/19 17:31:40;;;;;;;5.72;2.00;;;;;;;;;;6302519;22;20098;-86
2023/01/19 17:34:09;;;;;;;8.95;1.80;;;;;;;;;;6302435;22;20054;-86
2023/01/19 17:36:36;;;;;;;7.68;2.38;;;;;;;;;;6304225;22;20082;-86
2023/01/19 17:39:05;;;;;;;6.45;2.40;;;;;;;;;;6302000;22;20055;-86
2023/01/19 17:41:33;;;;;;;11.07;2.63;;;;;;;;;;6302778;22;20023;-86
2023/01/19 17:44:00;;;;;;;6.00;2.22;;;;;;;;;;6302829;22;20035;-87
2023/01/19 17:46:27;;;;;;;8.05;3.53;;;;;;;;;;6303440;22;20122;-86
2023/01/19 17:48:55;;;;;;;10.25;3.55;;;;;;;;;;6302117;22;20061;-86
2023/01/19 17:51:22;;;;;;;7.93;3.65;;;;;;;;;;6300217;22;20432;-86
2023/01/19 17:53:49;;;;;;;9.32;3.00;;;;;;;;;;6302944;22;20090;-86
2023/01/19 17:56:17;;;;;;;7.78;3.28;;;;;;;;;;6300907;22;20542;-86
2023/01/19 17:58:43;;;;;;;10.10;4.35;;;;;;;;;;6302899;22;20023;-87
2023/01/19 18:01:11;;;;;;;11.95;4.70;;;;;;;;;;6301433;22;20028;-85
2023/01/19 18:03:38;;;;;;;15.55;5.80;;;;;;;;;;6301289;22;20016;-85
2023/01/19 18:06:04;;;;;;;12.70;5.20;;;;;;;;;;6302504;22;20035;-86
2023/01/19 18:08:32;;;;;;;15.45;6.90;;;;;;;;;;6301015;22;20110;-86
2023/01/19 18:11:00;;;;;;;19.90;8.40;;;;;;;;;;6300862;22;20123;-85
2023/01/19 18:13:26;;;;;;;23.73;9.18;;;;;;;;;;6300807;22;20035;-86
2023/01/19 18:16:00;;;;;;;27.95;11.50;;;;;;;;;;6300016;22;20461;-85
2023/01/19 18:18:42;;;;;;;29.25;12.20;;;;;;;;;;6264749;22;20122;-85
2023/01/19 18:21:10;;;;;;;29.52;12.45;;;;;;;;;;6301225;22;20028;-86
2023/01/19 18:23:36;;;;;;;31.15;13.68;;;;;;;;;;6302536;22;20051;-86
2023/01/19 18:26:06;;;;;;;33.78;13.65;;;;;;;;;;6300369;22;20024;-85
2023/01/19 18:28:33;;;;;;;32.67;14.43;;;;;;;;;;6301028;22;20020;-86
2023/01/19 18:31:08;;;;;;;32.38;14.05;;;;;;;;;;6301236;22;20066;-86
2023/01/19 18:33:34;;;;;;;33.70;15.07;;;;;;;;;;6302045;22;20464;-86
2023/01/19 18:36:01;;;;;;;38.17;15.75;;;;;;;;;;6302606;22;20023;-85
2023/01/19 18:38:27;;;;;;;33.22;13.80;;;;;;;;;;6301735;22;20034;-86
2023/01/19 18:41:04;;;;;;;32.05;14.20;;;;;;;;;;6301528;22;20054;-86
2023/01/19 18:43:31;;;;;;;32.90;14.95;;;;;;;;;;6276797;22;20059;-86
2023/01/19 18:45:57;;;;;;;38.75;15.35;;;;;;;;;;6301241;22;20052;-86
2023/01/19 18:48:24;;;;;;;33.47;15.55;;;;;;;;;;6302213;22;20024;-85
2023/01/19 18:50:50;;;;;;;38.00;15.27;;;;;;;;;;6303261;22;20031;-85
2023/01/19 18:53:17;;;;;;;39.97;15.20;;;;;;;;;;6302661;22;20852;-85
2023/01/19 18:55:53;;;;;;;37.47;15.57;;;;;;;;;;6301691;22;20457;-86
2023/01/19 18:58:20;;;;;;;33.78;13.88;;;;;;;;;;6304000;22;20027;-86
2023/01/19 19:00:47;;;;;;;35.50;14.85;;;;;;;;;;6304268;22;20030;-85
2023/01/19 19:03:16;;;;;;;33.65;15.52;;;;;;;;;;6304328;22;20028;-85
2023/01/19 19:05:42;;;;;;;31.23;14.75;;;;;;;;;;6303427;22;20455;-84
2023/01/19 19:08:09;;;;;;;41.92;16.02;;;;;;;;;;6303025;22;20027;-84
2023/01/19 19:10:35;;;;;;;44.72;20.25;;;;;;;;;;6302687;22;20024;-85
2023/01/19 19:13:02;;;;;;;42.38;21.23;;;;;;;;;;6302843;22;20032;-85
2023/01/19 19:15:30;;;;;;;36.58;16.05;;;;;;;;;;6303025;22;20030;-85
2023/01/19 19:17:56;;;;;;;30.42;13.93;;;;;;;;;;6302353;22;20638;-85
2023/01/19 19:20:25;;;;;;;31.15;14.10;;;;;;;;;;6303791;22;20032;-85
2023/01/19 19:22:54;;;;;;;35.25;15.45;;;;;;;;;;6303824;22;20050;-85
2023/01/19 19:25:21;;;;;;;32.50;14.95;;;;;;;;;;6303061;22;20019;-84
2023/01/19 19:27:50;;;;;;;27.42;11.88;;;;;;;;;;6303672;22;20090;-85
2023/01/19 19:30:18;;;;;;;27.38;11.75;;;;;;;;;;6300930;22;20065;-84
2023/01/19 19:32:50;;;;;;;22.58;9.30;;;;;;;;;;6303394;22;20081;-85
2023/01/19 19:35:19;;;;;;;19.77;8.38;;;;;;;;;;6302926;22;20027;-85
2023/01/19 19:37:46;;;;;;;19.70;7.82;;;;;;;;;;6303668;22;20035;-85
2023/01/19 19:40:12;;;;;;;18.13;7.82;;;;;;;;;;6302970;22;20038;-85
2023/01/19 19:42:39;;;;;;;17.77;8.00;;;;;;;;;;6303599;22;20034;-85
2023/01/19 19:45:05;;;;;;;18.10;7.82;;;;;;;;;;6303845;22;20024;-85
2023/01/19 19:47:32;;;;;;;14.90;7.63;;;;;;;;;;6303950;22;20016;-85
2023/01/19 19:49:59;;;;;;;13.77;6.38;;;;;;;;;;6303771;22;20278;-85
2023/01/19 19:52:26;;;;;;;11.70;5.57;;;;;;;;;;6302579;22;20058;-85
2023/01/19 19:54:53;;;;;;;12.13;4.45;;;;;;;;;;6304169;22;20019;-85
2023/01/19 19:57:19;;;;;;;13.52;5.47;;;;;;;;;;6307636;22;20024;-85
2023/01/19 19:59:46;;;;;;;10.52;5.03;;;;;;;;;;6305915;22;20032;-85
2023/01/19 20:02:12;;;;;;;10.50;5.03;;;;;;;;;;6302989;22;20063;-85
2023/01/19 20:04:39;;;;;;;9.73;4.43;;;;;;;;;;6303148;22;20023;-84
2023/01/19 20:07:05;;;;;;;10.60;4.38;;;;;;;;;;6303863;22;20028;-85
2023/01/19 20:09:31;;;;;;;13.93;7.18;;;;;;;;;;6303955;22;20031;-85
2023/01/19 20:11:58;;;;;;;10.75;5.22;;;;;;;;;;6302545;22;20367;-85
2023/01/19 20:14:24;;;;;;;6.45;3.13;;;;;;;;;;6302193;22;20062;-85
2023/01/19 20:16:51;;;;;;;8.38;2.72;;;;;;;;;;6302580;22;20011;-85
2023/01/19 20:19:17;;;;;;;5.85;2.20;;;;;;;;;;6303219;22;20042;-85
2023/01/19 20:21:44;;;;;;;5.10;1.98;;;;;;;;;;6302964;22;20102;-84
2023/01/19 20:24:15;;;;;;;5.72;2.20;;;;;;;;;;6302563;22;20421;-86
2023/01/19 20:26:43;;;;;;;5.78;2.72;;;;;;;;;;6303057;22;20028;-85
2023/01/19 20:29:11;;;;;;;6.25;3.10;;;;;;;;;;6302227;22;20024;-85
2023/01/19 20:31:40;;;;;;;7.45;4.13;;;;;;;;;;6303127;22;20023;-84
2023/01/19 20:34:08;;;;;;;7.78;3.65;;;;;;;;;;6302949;22;20098;-85
2023/01/19 20:36:35;;;;;;;9.02;4.03;;;;;;;;;;6302892;22;20030;-84
2023/01/19 20:39:07;;;;;;;8.50;4.28;;;;;;;;;;6302443;22;20031;-84
2023/01/19 20:41:34;;;;;;;10.50;5.15;;;;;;;;;;6302847;22;20337;-85
2023/01/19 20:44:00;;;;;;;11.70;5.05;;;;;;;;;;6303285;22;20030;-84
2023/01/19 20:46:26;;;;;;;9.40;4.38;;;;;;;;;;6300527;22;20032;-84
2023/01/19 20:48:53;;;;;;;11.02;4.18;;;;;;;;;;6302839;22;20030;-84
2023/01/19 20:51:20;;;;;;;9.60;4.53;;;;;;;;;;6301617;22;20485;-84
2023/01/19 20:53:46;;;;;;;12.20;4.97;;;;;;;;;;6302253;22;20457;-85
2023/01/19 20:56:14;;;;;;;7.50;3.38;;;;;;;;;;6302825;22;20102;-84
2023/01/19 20:58:40;;;;;;;5.70;2.83;;;;;;;;;;6302436;22;20032;-84
2023/01/19 21:01:13;;;;;;;4.93;2.50;;;;;;;;;;6301911;22;20461;-85
2023/01/19 21:03:40;;;;;;;6.35;2.78;;;;;;;;;;6300392;22;20024;-85
2023/01/19 21:06:07;;;;;;;6.30;2.60;;;;;;;;;;6301905;22;20107;-84
2023/01/19 21:08:36;;;;;;;6.57;3.22;;;;;;;;;;6300600;22;20030;-84
2023/01/19 21:11:03;;;;;;;8.68;3.50;;;;;;;;;;6302671;22;20012;-85
2023/01/19 21:13:30;;;;;;;7.57;4.47;;;;;;;;;;6301058;22;20023;-84
2023/01/19 21:15:57;;;;;;;7.78;3.40;;;;;;;;;;6301825;22;20098;-84
2023/01/19 21:18:26;;;;;;;8.15;3.92;;;;;;;;;;6303016;22;20028;-84
2023/01/19 21:20:54;;;;;;;6.90;2.90;;;;;;;;;;6304857;22;20074;-85
2023/01/19 21:23:20;;;;;;;7.22;3.00;;;;;;;;;;6304077;22;20562;-84
2023/01/19 21:25:47;;;;;;;6.80;2.33;;;;;;;;;;6303209;22;20106;-84
2023/01/19 21:28:14;;;;;;;7.00;3.05;;;;;;;;;;6305870;22;20108;-84
2023/01/19 21:30:41;;;;;;;7.63;3.60;;;;;;;;;;6303565;22;20029;-84
2023/01/19 21:33:11;;;;;;;10.40;5.38;;;;;;;;;;6305128;22;20032;-84
2023/01/19 21:35:38;;;;;;;7.78;3.47;;;;;;;;;;6304170;22;20016;-84
2023/01/19 21:38:07;;;;;;;7.55;3.65;;;;;;;;;;6304870;22;20031;-84
2023/01/19 21:40:36;;;;;;;6.22;3.20;;;;;;;;;;6302881;22;20023;-85
2023/01/19 21:43:02;;;;;;;8.13;2.88;;;;;;;;;;6303347;22;20030;-84
2023/01/19 21:45:29;;;;;;;7.93;3.38;;;;;;;;;;6302720;22;21182;-84
2023/01/19 21:47:55;;;;;;;8.15;3.70;;;;;;;;;;6303305;22;20353;-83
2023/01/19 21:50:21;;;;;;;9.27;3.42;;;;;;;;;;6303733;22;20015;-84
2023/01/19 21:52:48;;;;;;;7.18;3.50;;;;;;;;;;6303358;22;20033;-84
2023/01/19 21:55:15;;;;;;;14.43;4.10;;;;;;;;;;6304558;22;20028;-84
2023/01/19 21:57:42;;;;;;;9.10;4.20;;;;;;;;;;6303816;22;20027;-84
2023/01/19 22:00:09;;;;;;;7.93;3.65;;;;;;;;;;6302435;22;20027;-84
2023/01/19 22:02:36;;;;;;;14.43;5.18;;;;;;;;;;6304300;22;20023;-84
2023/01/19 22:05:05;;;;;;;9.52;4.40;;;;;;;;;;6304484;22;20024;-84
2023/01/19 22:07:31;;;;;;;8.45;4.13;;;;;;;;;;6303658;22;20055;-85
2023/01/19 22:09:58;;;;;;;10.10;4.75;;;;;;;;;;6309460;22;20103;-85
2023/01/19 22:12:24;;;;;;;10.15;3.90;;;;;;;;;;6319830;22;20047;-84
2023/01/19 22:14:51;;;;;;;9.38;4.57;;;;;;;;;;6317078;22;20056;-84
2023/01/19 22:17:17;;;;;;;12.70;4.97;;;;;;;;;;6315786;22;20024;-85
2023/01/19 22:19:44;;;;;;;10.75;4.85;;;;;;;;;;6313034;22;20019;-84
2023/01/19 22:22:10;;;;;;;10.98;4.97;;;;;;;;;;6317996;22;20019;-85